sensor_id;sensor_type;location;lat;lon;timestamp;P1;durP1;ratioP1;P2;durP2;ratioP2
71303;SDS011;59091;47.446;19.148;2023-04-29T00:00:40;10.20;;;5.97;;
71303;SDS011;59091;47.446;19.148;2023-04-29T00:03:05;12.65;;;5.68;;
71303;SDS011;59091;47.446;19.148;2023-04-29T00:05:30;9.52;;;5.43;;
71303;SDS011;59091;47.446;19.148;2023-04-29T00:07:56;14.50;;;5.80;;
71303;SDS011;59091;47.446;19.148;2023-04-29T00:10:21;9.20;;;5.63;;
71303;SDS011;59091;47.446;19.148;2023-04-29T00:12:47;11.77;;;5.50;;
71303;SDS011;59091;47.446;19.148;2023-04-29T00:15:15;8.05;;;4.53;;
71303;SDS011;59091;47.446;19.148;2023-04-29T00:17:41;8.85;;;4.65;;
71303;SDS011;59091;47.446;19.148;2023-04-29T00:20:06;9.82;;;4.90;;
71303;SDS011;59091;47.446;19.148;2023-04-29T00:22:32;9.40;;;4.78;;
71303;SDS011;59091;47.446;19.148;2023-04-29T00:24:58;7.68;;;4.80;;
71303;SDS011;59091;47.446;19.148;2023-04-29T00:27:23;14.05;;;5.03;;
71303;SDS011;59091;47.446;19.148;2023-04-29T00:29:49;9.55;;;5.20;;
71303;SDS011;59091;47.446;19.148;2023-04-29T00:32:14;8.48;;;5.05;;
71303;SDS011;59091;47.446;19.148;2023-04-29T00:34:40;6.82;;;4.75;;
71303;SDS011;59091;47.446;19.148;2023-04-29T00:37:06;7.75;;;4.38;;
71303;SDS011;59091;47.446;19.148;2023-04-29T00:39:32;8.25;;;4.78;;
71303;SDS011;59091;47.446;19.148;2023-04-29T00:41:57;12.18;;;5.18;;
71303;SDS011;59091;47.446;19.148;2023-04-29T00:44:23;12.00;;;5.32;;
71303;SDS011;59091;47.446;19.148;2023-04-29T00:46:48;8.93;;;4.75;;
71303;SDS011;59091;47.446;19.148;2023-04-29T00:49:14;7.30;;;4.45;;
71303;SDS011;59091;47.446;19.148;2023-04-29T00:51:40;7.93;;;5.00;;
71303;SDS011;59091;47.446;19.148;2023-04-29T00:54:06;6.60;;;4.55;;
71303;SDS011;59091;47.446;19.148;2023-04-29T00:56:33;11.23;;;4.90;;
71303;SDS011;59091;47.446;19.148;2023-04-29T00:59:00;7.75;;;4.75;;
71303;SDS011;59091;47.446;19.148;2023-04-29T01:01:28;7.28;;;5.03;;
71303;SDS011;59091;47.446;19.148;2023-04-29T01:03:54;5.13;;;4.60;;
71303;SDS011;59091;47.446;19.148;2023-04-29T01:06:39;11.10;;;5.28;;
71303;SDS011;59091;47.446;19.148;2023-04-29T01:09:28;9.80;;;4.88;;
71303;SDS011;59091;47.446;19.148;2023-04-29T01:12:23;7.88;;;4.82;;
71303;SDS011;59091;47.446;19.148;2023-04-29T01:15:00;6.50;;;4.65;;
71303;SDS011;59091;47.446;19.148;2023-04-29T01:17:31;10.32;;;4.93;;
71303;SDS011;59091;47.446;19.148;2023-04-29T01:20:07;9.13;;;4.70;;
71303;SDS011;59091;47.446;19.148;2023-04-29T01:22:34;9.40;;;4.38;;
71303;SDS011;59091;47.446;19.148;2023-04-29T01:25:00;5.70;;;4.68;;
71303;SDS011;59091;47.446;19.148;2023-04-29T01:27:30;9.82;;;4.90;;
71303;SDS011;59091;47.446;19.148;2023-04-29T01:32:56;8.70;;;4.35;;
71303;SDS011;59091;47.446;19.148;2023-04-29T01:41:10;10.45;;;4.78;;
71303;SDS011;59091;47.446;19.148;2023-04-29T01:43:37;12.68;;;4.68;;
71303;SDS011;59091;47.446;19.148;2023-04-29T01:46:09;7.45;;;4.78;;
71303;SDS011;59091;47.446;19.148;2023-04-29T01:48:36;10.48;;;4.55;;
71303;SDS011;59091;47.446;19.148;2023-04-29T01:51:01;11.65;;;5.15;;
71303;SDS011;59091;47.446;19.148;2023-04-29T01:53:27;7.38;;;4.60;;
71303;SDS011;59091;47.446;19.148;2023-04-29T01:55:53;9.77;;;4.85;;
71303;SDS011;59091;47.446;19.148;2023-04-29T01:58:18;8.13;;;4.88;;
71303;SDS011;59091;47.446;19.148;2023-04-29T02:00:44;7.32;;;4.80;;
71303;SDS011;59091;47.446;19.148;2023-04-29T02:03:09;7.85;;;4.57;;
71303;SDS011;59091;47.446;19.148;2023-04-29T02:05:36;9.45;;;4.55;;
71303;SDS011;59091;47.446;19.148;2023-04-29T02:08:01;9.40;;;4.75;;
71303;SDS011;59091;47.446;19.148;2023-04-29T02:10:27;8.23;;;4.68;;
71303;SDS011;59091;47.446;19.148;2023-04-29T02:12:52;8.48;;;4.78;;
71303;SDS011;59091;47.446;19.148;2023-04-29T02:15:18;8.50;;;4.85;;
71303;SDS011;59091;47.446;19.148;2023-04-29T02:17:44;6.95;;;4.47;;
71303;SDS011;59091;47.446;19.148;2023-04-29T02:20:11;8.27;;;4.88;;
71303;SDS011;59091;47.446;19.148;2023-04-29T02:22:36;8.77;;;5.05;;
71303;SDS011;59091;47.446;19.148;2023-04-29T02:25:02;7.93;;;5.07;;
71303;SDS011;59091;47.446;19.148;2023-04-29T02:27:27;9.15;;;4.93;;
71303;SDS011;59091;47.446;19.148;2023-04-29T02:29:53;8.45;;;4.78;;
71303;SDS011;59091;47.446;19.148;2023-04-29T02:32:18;9.95;;;5.20;;
71303;SDS011;59091;47.446;19.148;2023-04-29T02:34:44;8.35;;;5.10;;
71303;SDS011;59091;47.446;19.148;2023-04-29T02:37:10;6.93;;;4.63;;
71303;SDS011;59091;47.446;19.148;2023-04-29T02:39:36;7.15;;;4.72;;
71303;SDS011;59091;47.446;19.148;2023-04-29T02:42:02;10.88;;;4.95;;
71303;SDS011;59091;47.446;19.148;2023-04-29T02:44:27;11.95;;;5.78;;
71303;SDS011;59091;47.446;19.148;2023-04-29T02:46:53;9.23;;;5.00;;
71303;SDS011;59091;47.446;19.148;2023-04-29T02:49:18;9.10;;;4.93;;
71303;SDS011;59091;47.446;19.148;2023-04-29T02:51:44;7.90;;;4.82;;
71303;SDS011;59091;47.446;19.148;2023-04-29T02:54:09;6.10;;;4.68;;
71303;SDS011;59091;47.446;19.148;2023-04-29T02:56:36;8.25;;;4.80;;
71303;SDS011;59091;47.446;19.148;2023-04-29T02:59:01;7.57;;;4.70;;
71303;SDS011;59091;47.446;19.148;2023-04-29T03:01:27;10.00;;;5.15;;
71303;SDS011;59091;47.446;19.148;2023-04-29T03:03:53;7.50;;;5.22;;
71303;SDS011;59091;47.446;19.148;2023-04-29T03:06:18;10.10;;;5.18;;
71303;SDS011;59091;47.446;19.148;2023-04-29T03:08:44;8.13;;;5.03;;
71303;SDS011;59091;47.446;19.148;2023-04-29T03:11:10;8.75;;;4.82;;
71303;SDS011;59091;47.446;19.148;2023-04-29T03:13:35;6.47;;;4.78;;
71303;SDS011;59091;47.446;19.148;2023-04-29T03:16:02;9.95;;;5.80;;
71303;SDS011;59091;47.446;19.148;2023-04-29T03:18:28;8.35;;;4.70;;
71303;SDS011;59091;47.446;19.148;2023-04-29T03:20:53;10.32;;;5.03;;
71303;SDS011;59091;47.446;19.148;2023-04-29T03:23:18;12.13;;;5.30;;
71303;SDS011;59091;47.446;19.148;2023-04-29T03:25:44;9.90;;;5.07;;
71303;SDS011;59091;47.446;19.148;2023-04-29T03:28:09;9.43;;;4.97;;
71303;SDS011;59091;47.446;19.148;2023-04-29T03:30:35;9.80;;;5.30;;
71303;SDS011;59091;47.446;19.148;2023-04-29T03:33:00;9.70;;;5.40;;
71303;SDS011;59091;47.446;19.148;2023-04-29T03:35:26;10.57;;;5.53;;
71303;SDS011;59091;47.446;19.148;2023-04-29T03:37:51;10.35;;;5.07;;
71303;SDS011;59091;47.446;19.148;2023-04-29T03:40:17;10.80;;;5.35;;
71303;SDS011;59091;47.446;19.148;2023-04-29T03:42:43;9.40;;;5.70;;
71303;SDS011;59091;47.446;19.148;2023-04-29T03:45:09;9.80;;;5.50;;
71303;SDS011;59091;47.446;19.148;2023-04-29T03:47:37;9.25;;;5.28;;
71303;SDS011;59091;47.446;19.148;2023-04-29T03:50:02;15.07;;;5.60;;
71303;SDS011;59091;47.446;19.148;2023-04-29T03:52:28;13.45;;;5.70;;
71303;SDS011;59091;47.446;19.148;2023-04-29T03:54:54;10.77;;;5.40;;
71303;SDS011;59091;47.446;19.148;2023-04-29T03:57:19;8.52;;;5.63;;
71303;SDS011;59091;47.446;19.148;2023-04-29T03:59:44;7.60;;;5.20;;
71303;SDS011;59091;47.446;19.148;2023-04-29T04:02:14;9.52;;;6.00;;
71303;SDS011;59091;47.446;19.148;2023-04-29T04:04:39;10.52;;;5.30;;
71303;SDS011;59091;47.446;19.148;2023-04-29T04:07:06;9.55;;;5.38;;
71303;SDS011;59091;47.446;19.148;2023-04-29T04:09:31;8.50;;;5.43;;
71303;SDS011;59091;47.446;19.148;2023-04-29T04:11:57;8.90;;;5.70;;
71303;SDS011;59091;47.446;19.148;2023-04-29T04:14:23;10.85;;;5.97;;
71303;SDS011;59091;47.446;19.148;2023-04-29T04:16:48;10.35;;;5.90;;
71303;SDS011;59091;47.446;19.148;2023-04-29T04:19:14;8.95;;;5.38;;
71303;SDS011;59091;47.446;19.148;2023-04-29T04:21:40;8.73;;;5.75;;
71303;SDS011;59091;47.446;19.148;2023-04-29T04:24:06;15.90;;;5.70;;
71303;SDS011;59091;47.446;19.148;2023-04-29T04:26:32;16.02;;;5.45;;
71303;SDS011;59091;47.446;19.148;2023-04-29T04:28:57;8.95;;;5.65;;
71303;SDS011;59091;47.446;19.148;2023-04-29T04:31:23;8.60;;;5.38;;
71303;SDS011;59091;47.446;19.148;2023-04-29T04:33:49;9.40;;;5.68;;
71303;SDS011;59091;47.446;19.148;2023-04-29T04:36:15;9.80;;;6.07;;
71303;SDS011;59091;47.446;19.148;2023-04-29T04:38:40;11.65;;;5.95;;
71303;SDS011;59091;47.446;19.148;2023-04-29T04:41:06;8.00;;;5.70;;
71303;SDS011;59091;47.446;19.148;2023-04-29T04:43:34;10.30;;;6.53;;
71303;SDS011;59091;47.446;19.148;2023-04-29T04:45:59;7.93;;;5.63;;
71303;SDS011;59091;47.446;19.148;2023-04-29T04:48:25;10.27;;;6.72;;
71303;SDS011;59091;47.446;19.148;2023-04-29T04:50:51;14.20;;;6.47;;
71303;SDS011;59091;47.446;19.148;2023-04-29T04:53:16;11.35;;;6.30;;
71303;SDS011;59091;47.446;19.148;2023-04-29T04:55:41;15.43;;;6.18;;
71303;SDS011;59091;47.446;19.148;2023-04-29T04:58:07;10.82;;;6.20;;
71303;SDS011;59091;47.446;19.148;2023-04-29T05:00:32;14.15;;;6.70;;
71303;SDS011;59091;47.446;19.148;2023-04-29T05:02:58;14.32;;;6.50;;
71303;SDS011;59091;47.446;19.148;2023-04-29T05:05:23;8.75;;;6.13;;
71303;SDS011;59091;47.446;19.148;2023-04-29T05:07:48;7.85;;;5.72;;
71303;SDS011;59091;47.446;19.148;2023-04-29T05:10:14;10.35;;;6.10;;
71303;SDS011;59091;47.446;19.148;2023-04-29T05:12:39;8.30;;;6.15;;
71303;SDS011;59091;47.446;19.148;2023-04-29T05:15:05;11.98;;;6.03;;
71303;SDS011;59091;47.446;19.148;2023-04-29T05:17:31;11.43;;;6.72;;
71303;SDS011;59091;47.446;19.148;2023-04-29T05:19:58;9.70;;;6.00;;
71303;SDS011;59091;47.446;19.148;2023-04-29T05:22:23;8.95;;;5.60;;
71303;SDS011;59091;47.446;19.148;2023-04-29T05:24:49;10.82;;;5.85;;
71303;SDS011;59091;47.446;19.148;2023-04-29T05:27:15;11.73;;;6.25;;
71303;SDS011;59091;47.446;19.148;2023-04-29T05:29:41;9.13;;;5.82;;
71303;SDS011;59091;47.446;19.148;2023-04-29T05:32:06;8.77;;;5.90;;
71303;SDS011;59091;47.446;19.148;2023-04-29T05:34:32;9.23;;;5.65;;
71303;SDS011;59091;47.446;19.148;2023-04-29T05:36:57;9.25;;;6.22;;
71303;SDS011;59091;47.446;19.148;2023-04-29T05:39:23;7.47;;;6.35;;
71303;SDS011;59091;47.446;19.148;2023-04-29T05:41:48;12.52;;;6.20;;
71303;SDS011;59091;47.446;19.148;2023-04-29T05:44:14;9.52;;;5.80;;
71303;SDS011;59091;47.446;19.148;2023-04-29T05:46:39;6.35;;;5.20;;
71303;SDS011;59091;47.446;19.148;2023-04-29T05:49:05;9.25;;;5.90;;
71303;SDS011;59091;47.446;19.148;2023-04-29T05:51:30;10.10;;;6.07;;
71303;SDS011;59091;47.446;19.148;2023-04-29T05:53:56;8.15;;;6.05;;
71303;SDS011;59091;47.446;19.148;2023-04-29T05:56:23;12.30;;;5.63;;
71303;SDS011;59091;47.446;19.148;2023-04-29T05:58:49;7.35;;;5.97;;
71303;SDS011;59091;47.446;19.148;2023-04-29T06:01:14;8.95;;;5.68;;
71303;SDS011;59091;47.446;19.148;2023-04-29T06:03:41;8.05;;;5.57;;
71303;SDS011;59091;47.446;19.148;2023-04-29T06:06:07;11.85;;;6.10;;
71303;SDS011;59091;47.446;19.148;2023-04-29T06:08:32;10.40;;;4.57;;
71303;SDS011;59091;47.446;19.148;2023-04-29T06:10:58;8.68;;;5.47;;
71303;SDS011;59091;47.446;19.148;2023-04-29T06:13:23;10.15;;;5.78;;
71303;SDS011;59091;47.446;19.148;2023-04-29T06:15:50;10.13;;;5.43;;
71303;SDS011;59091;47.446;19.148;2023-04-29T06:18:15;10.65;;;5.80;;
71303;SDS011;59091;47.446;19.148;2023-04-29T06:20:41;13.95;;;6.40;;
71303;SDS011;59091;47.446;19.148;2023-04-29T06:23:06;10.50;;;5.70;;
71303;SDS011;59091;47.446;19.148;2023-04-29T06:25:32;15.95;;;5.72;;
71303;SDS011;59091;47.446;19.148;2023-04-29T06:27:58;9.88;;;5.88;;
71303;SDS011;59091;47.446;19.148;2023-04-29T06:30:23;8.63;;;6.20;;
71303;SDS011;59091;47.446;19.148;2023-04-29T06:32:49;6.72;;;5.50;;
71303;SDS011;59091;47.446;19.148;2023-04-29T06:35:14;10.00;;;6.05;;
71303;SDS011;59091;47.446;19.148;2023-04-29T06:37:40;8.50;;;5.63;;
71303;SDS011;59091;47.446;19.148;2023-04-29T06:40:05;8.00;;;5.72;;
71303;SDS011;59091;47.446;19.148;2023-04-29T06:42:31;10.63;;;6.00;;
71303;SDS011;59091;47.446;19.148;2023-04-29T06:44:57;10.25;;;5.80;;
71303;SDS011;59091;47.446;19.148;2023-04-29T06:47:22;11.25;;;6.50;;
71303;SDS011;59091;47.446;19.148;2023-04-29T06:49:48;8.60;;;5.93;;
71303;SDS011;59091;47.446;19.148;2023-04-29T06:52:13;9.35;;;6.28;;
71303;SDS011;59091;47.446;19.148;2023-04-29T06:54:38;9.32;;;6.20;;
71303;SDS011;59091;47.446;19.148;2023-04-29T06:57:04;10.00;;;6.15;;
71303;SDS011;59091;47.446;19.148;2023-04-29T06:59:30;11.10;;;6.03;;
71303;SDS011;59091;47.446;19.148;2023-04-29T07:01:56;8.73;;;5.22;;
71303;SDS011;59091;47.446;19.148;2023-04-29T07:04:22;11.98;;;6.22;;
71303;SDS011;59091;47.446;19.148;2023-04-29T07:06:47;11.80;;;6.18;;
71303;SDS011;59091;47.446;19.148;2023-04-29T07:09:13;9.35;;;5.60;;
71303;SDS011;59091;47.446;19.148;2023-04-29T07:11:38;7.95;;;5.05;;
71303;SDS011;59091;47.446;19.148;2023-04-29T07:14:04;8.75;;;5.55;;
71303;SDS011;59091;47.446;19.148;2023-04-29T07:16:31;8.35;;;5.47;;
71303;SDS011;59091;47.446;19.148;2023-04-29T07:18:57;11.43;;;5.60;;
71303;SDS011;59091;47.446;19.148;2023-04-29T07:21:22;12.77;;;6.00;;
71303;SDS011;59091;47.446;19.148;2023-04-29T07:23:48;7.90;;;5.75;;
71303;SDS011;59091;47.446;19.148;2023-04-29T07:26:14;12.02;;;5.68;;
71303;SDS011;59091;47.446;19.148;2023-04-29T07:28:40;8.50;;;5.88;;
71303;SDS011;59091;47.446;19.148;2023-04-29T07:31:07;9.43;;;6.03;;
71303;SDS011;59091;47.446;19.148;2023-04-29T07:33:33;10.88;;;6.45;;
71303;SDS011;59091;47.446;19.148;2023-04-29T07:35:59;9.32;;;6.25;;
71303;SDS011;59091;47.446;19.148;2023-04-29T07:38:25;7.78;;;5.80;;
71303;SDS011;59091;47.446;19.148;2023-04-29T07:40:51;11.98;;;6.03;;
71303;SDS011;59091;47.446;19.148;2023-04-29T07:43:16;11.32;;;6.20;;
71303;SDS011;59091;47.446;19.148;2023-04-29T07:45:42;15.30;;;6.50;;
71303;SDS011;59091;47.446;19.148;2023-04-29T07:48:07;9.70;;;6.63;;
71303;SDS011;59091;47.446;19.148;2023-04-29T07:50:33;9.93;;;6.25;;
71303;SDS011;59091;47.446;19.148;2023-04-29T07:53:00;10.07;;;5.95;;
71303;SDS011;59091;47.446;19.148;2023-04-29T07:55:27;9.02;;;6.53;;
71303;SDS011;59091;47.446;19.148;2023-04-29T07:57:58;13.45;;;6.88;;
71303;SDS011;59091;47.446;19.148;2023-04-29T08:00:24;11.80;;;6.18;;
71303;SDS011;59091;47.446;19.148;2023-04-29T08:02:53;11.20;;;5.90;;
71303;SDS011;59091;47.446;19.148;2023-04-29T08:05:19;13.30;;;6.20;;
71303;SDS011;59091;47.446;19.148;2023-04-29T08:07:45;13.13;;;6.57;;
71303;SDS011;59091;47.446;19.148;2023-04-29T08:10:14;14.30;;;5.95;;
71303;SDS011;59091;47.446;19.148;2023-04-29T08:12:40;8.10;;;5.43;;
71303;SDS011;59091;47.446;19.148;2023-04-29T08:15:06;10.25;;;5.50;;
71303;SDS011;59091;47.446;19.148;2023-04-29T08:17:32;9.68;;;5.32;;
71303;SDS011;59091;47.446;19.148;2023-04-29T08:19:59;10.40;;;6.10;;
71303;SDS011;59091;47.446;19.148;2023-04-29T08:22:24;14.48;;;6.07;;
71303;SDS011;59091;47.446;19.148;2023-04-29T08:24:50;9.18;;;6.20;;
71303;SDS011;59091;47.446;19.148;2023-04-29T08:27:16;10.60;;;5.93;;
71303;SDS011;59091;47.446;19.148;2023-04-29T08:29:41;8.73;;;5.50;;
71303;SDS011;59091;47.446;19.148;2023-04-29T08:32:07;10.95;;;5.75;;
71303;SDS011;59091;47.446;19.148;2023-04-29T08:34:32;9.00;;;5.63;;
71303;SDS011;59091;47.446;19.148;2023-04-29T08:37:00;8.10;;;5.32;;
71303;SDS011;59091;47.446;19.148;2023-04-29T08:39:29;8.18;;;5.40;;
71303;SDS011;59091;47.446;19.148;2023-04-29T08:41:55;12.63;;;5.60;;
71303;SDS011;59091;47.446;19.148;2023-04-29T08:44:21;15.73;;;5.78;;
71303;SDS011;59091;47.446;19.148;2023-04-29T08:46:47;10.85;;;5.85;;
71303;SDS011;59091;47.446;19.148;2023-04-29T08:49:13;11.82;;;5.65;;
71303;SDS011;59091;47.446;19.148;2023-04-29T08:51:39;7.65;;;5.95;;
71303;SDS011;59091;47.446;19.148;2023-04-29T08:54:04;6.95;;;5.10;;
71303;SDS011;59091;47.446;19.148;2023-04-29T08:56:31;12.40;;;5.22;;
71303;SDS011;59091;47.446;19.148;2023-04-29T08:58:58;10.57;;;5.43;;
71303;SDS011;59091;47.446;19.148;2023-04-29T09:01:26;6.20;;;5.00;;
71303;SDS011;59091;47.446;19.148;2023-04-29T09:04:00;10.82;;;5.28;;
71303;SDS011;59091;47.446;19.148;2023-04-29T09:06:56;9.07;;;5.25;;
71303;SDS011;59091;47.446;19.148;2023-04-29T09:09:23;7.50;;;5.07;;
71303;SDS011;59091;47.446;19.148;2023-04-29T09:11:50;10.30;;;5.10;;
71303;SDS011;59091;47.446;19.148;2023-04-29T09:14:15;9.25;;;5.00;;
71303;SDS011;59091;47.446;19.148;2023-04-29T09:16:41;7.68;;;4.95;;
71303;SDS011;59091;47.446;19.148;2023-04-29T09:19:06;9.88;;;4.80;;
71303;SDS011;59091;47.446;19.148;2023-04-29T09:21:31;10.48;;;5.15;;
71303;SDS011;59091;47.446;19.148;2023-04-29T09:23:58;9.57;;;5.00;;
71303;SDS011;59091;47.446;19.148;2023-04-29T09:26:25;8.38;;;4.90;;
71303;SDS011;59091;47.446;19.148;2023-04-29T09:29:11;7.47;;;5.00;;
71303;SDS011;59091;47.446;19.148;2023-04-29T09:31:42;5.53;;;4.18;;
71303;SDS011;59091;47.446;19.148;2023-04-29T09:34:08;8.25;;;4.80;;
71303;SDS011;59091;47.446;19.148;2023-04-29T09:36:43;8.98;;;4.43;;
71303;SDS011;59091;47.446;19.148;2023-04-29T09:39:14;5.95;;;4.25;;
71303;SDS011;59091;47.446;19.148;2023-04-29T09:44:21;8.32;;;4.38;;
71303;SDS011;59091;47.446;19.148;2023-04-29T09:47:10;5.68;;;3.92;;
71303;SDS011;59091;47.446;19.148;2023-04-29T09:49:37;7.47;;;4.03;;
71303;SDS011;59091;47.446;19.148;2023-04-29T09:52:06;5.43;;;4.30;;
71303;SDS011;59091;47.446;19.148;2023-04-29T09:54:37;5.60;;;4.10;;
71303;SDS011;59091;47.446;19.148;2023-04-29T09:57:04;7.63;;;4.75;;
71303;SDS011;59091;47.446;19.148;2023-04-29T09:59:30;8.95;;;4.32;;
71303;SDS011;59091;47.446;19.148;2023-04-29T10:01:58;5.72;;;4.18;;
71303;SDS011;59091;47.446;19.148;2023-04-29T10:04:30;13.25;;;4.13;;
71303;SDS011;59091;47.446;19.148;2023-04-29T10:07:28;9.93;;;4.68;;
71303;SDS011;59091;47.446;19.148;2023-04-29T10:09:54;11.60;;;4.05;;
71303;SDS011;59091;47.446;19.148;2023-04-29T10:12:20;7.18;;;4.22;;
71303;SDS011;59091;47.446;19.148;2023-04-29T10:14:57;5.03;;;3.78;;
71303;SDS011;59091;47.446;19.148;2023-04-29T10:17:37;8.30;;;4.10;;
71303;SDS011;59091;47.446;19.148;2023-04-29T10:20:10;12.00;;;4.40;;
71303;SDS011;59091;47.446;19.148;2023-04-29T10:22:47;7.47;;;4.00;;
71303;SDS011;59091;47.446;19.148;2023-04-29T10:25:23;9.13;;;3.97;;
71303;SDS011;59091;47.446;19.148;2023-04-29T10:27:49;7.10;;;4.45;;
71303;SDS011;59091;47.446;19.148;2023-04-29T10:30:18;6.93;;;4.07;;
71303;SDS011;59091;47.446;19.148;2023-04-29T10:32:46;7.82;;;3.90;;
71303;SDS011;59091;47.446;19.148;2023-04-29T10:35:13;10.07;;;3.90;;
71303;SDS011;59091;47.446;19.148;2023-04-29T10:37:39;10.40;;;4.10;;
71303;SDS011;59091;47.446;19.148;2023-04-29T10:43:05;7.50;;;4.38;;
71303;SDS011;59091;47.446;19.148;2023-04-29T10:45:25;17.23;;;4.95;;
71303;SDS011;59091;47.446;19.148;2023-04-29T10:50:34;60.15;;;8.35;;
71303;SDS011;59091;47.446;19.148;2023-04-29T10:53:06;25.88;;;5.05;;
71303;SDS011;59091;47.446;19.148;2023-04-29T10:55:34;7.35;;;4.07;;
71303;SDS011;59091;47.446;19.148;2023-04-29T10:58:02;10.60;;;4.72;;
71303;SDS011;59091;47.446;19.148;2023-04-29T11:00:46;15.02;;;4.90;;
71303;SDS011;59091;47.446;19.148;2023-04-29T11:03:11;10.80;;;4.60;;
71303;SDS011;59091;47.446;19.148;2023-04-29T11:06:22;21.65;;;6.20;;
71303;SDS011;59091;47.446;19.148;2023-04-29T11:08:58;7.97;;;4.20;;
71303;SDS011;59091;47.446;19.148;2023-04-29T11:11:48;10.30;;;4.10;;
71303;SDS011;59091;47.446;19.148;2023-04-29T11:14:23;42.05;;;10.65;;
71303;SDS011;59091;47.446;19.148;2023-04-29T11:16:56;34.58;;;8.85;;
71303;SDS011;59091;47.446;19.148;2023-04-29T11:22:13;11.75;;;4.65;;
71303;SDS011;59091;47.446;19.148;2023-04-29T11:24:49;14.88;;;4.72;;
71303;SDS011;59091;47.446;19.148;2023-04-29T11:27:16;18.33;;;5.60;;
71303;SDS011;59091;47.446;19.148;2023-04-29T11:29:44;22.85;;;6.20;;
71303;SDS011;59091;47.446;19.148;2023-04-29T11:32:10;25.92;;;8.10;;
71303;SDS011;59091;47.446;19.148;2023-04-29T11:34:36;16.48;;;5.68;;
71303;SDS011;59091;47.446;19.148;2023-04-29T11:37:03;18.95;;;7.13;;
71303;SDS011;59091;47.446;19.148;2023-04-29T11:39:29;16.45;;;5.80;;
71303;SDS011;59091;47.446;19.148;2023-04-29T11:42:04;40.63;;;6.57;;
71303;SDS011;59091;47.446;19.148;2023-04-29T11:44:32;14.55;;;5.57;;
71303;SDS011;59091;47.446;19.148;2023-04-29T11:47:07;7.70;;;4.15;;
71303;SDS011;59091;47.446;19.148;2023-04-29T11:49:33;20.23;;;5.30;;
71303;SDS011;59091;47.446;19.148;2023-04-29T11:51:59;9.00;;;4.57;;
71303;SDS011;59091;47.446;19.148;2023-04-29T11:54:28;14.15;;;5.18;;
71303;SDS011;59091;47.446;19.148;2023-04-29T11:56:54;13.68;;;5.60;;
71303;SDS011;59091;47.446;19.148;2023-04-29T11:59:21;13.75;;;4.78;;
71303;SDS011;59091;47.446;19.148;2023-04-29T12:01:48;11.05;;;4.93;;
71303;SDS011;59091;47.446;19.148;2023-04-29T12:04:16;16.45;;;5.40;;
71303;SDS011;59091;47.446;19.148;2023-04-29T12:06:43;12.07;;;4.70;;
71303;SDS011;59091;47.446;19.148;2023-04-29T12:09:09;7.78;;;4.60;;
71303;SDS011;59091;47.446;19.148;2023-04-29T12:11:35;8.88;;;4.40;;
71303;SDS011;59091;47.446;19.148;2023-04-29T12:14:01;17.17;;;4.75;;
71303;SDS011;59091;47.446;19.148;2023-04-29T12:16:30;13.30;;;4.88;;
71303;SDS011;59091;47.446;19.148;2023-04-29T12:18:56;9.95;;;4.55;;
71303;SDS011;59091;47.446;19.148;2023-04-29T12:21:23;7.80;;;4.68;;
71303;SDS011;59091;47.446;19.148;2023-04-29T12:23:50;5.95;;;4.25;;
71303;SDS011;59091;47.446;19.148;2023-04-29T12:26:16;8.80;;;4.82;;
71303;SDS011;59091;47.446;19.148;2023-04-29T12:28:43;6.75;;;4.82;;
71303;SDS011;59091;47.446;19.148;2023-04-29T12:31:08;9.75;;;4.68;;
71303;SDS011;59091;47.446;19.148;2023-04-29T12:33:35;8.45;;;4.53;;
71303;SDS011;59091;47.446;19.148;2023-04-29T12:36:01;9.23;;;4.40;;
71303;SDS011;59091;47.446;19.148;2023-04-29T12:38:28;13.43;;;4.63;;
71303;SDS011;59091;47.446;19.148;2023-04-29T12:40:55;13.00;;;4.28;;
71303;SDS011;59091;47.446;19.148;2023-04-29T12:43:28;5.95;;;3.95;;
71303;SDS011;59091;47.446;19.148;2023-04-29T12:46:07;10.60;;;4.45;;
71303;SDS011;59091;47.446;19.148;2023-04-29T12:48:34;19.98;;;5.25;;
71303;SDS011;59091;47.446;19.148;2023-04-29T12:51:07;10.02;;;4.47;;
71303;SDS011;59091;47.446;19.148;2023-04-29T12:53:34;5.38;;;3.70;;
71303;SDS011;59091;47.446;19.148;2023-04-29T12:55:59;6.43;;;4.35;;
71303;SDS011;59091;47.446;19.148;2023-04-29T12:58:28;10.52;;;4.38;;
71303;SDS011;59091;47.446;19.148;2023-04-29T13:00:54;10.52;;;4.00;;
71303;SDS011;59091;47.446;19.148;2023-04-29T13:03:20;6.28;;;3.92;;
71303;SDS011;59091;47.446;19.148;2023-04-29T13:05:45;9.00;;;4.40;;
71303;SDS011;59091;47.446;19.148;2023-04-29T13:08:14;10.57;;;4.00;;
71303;SDS011;59091;47.446;19.148;2023-04-29T13:10:40;14.50;;;6.00;;
71303;SDS011;59091;47.446;19.148;2023-04-29T13:13:05;8.50;;;4.80;;
71303;SDS011;59091;47.446;19.148;2023-04-29T13:15:34;9.48;;;5.03;;
71303;SDS011;59091;47.446;19.148;2023-04-29T13:18:00;7.97;;;4.70;;
71303;SDS011;59091;47.446;19.148;2023-04-29T13:20:26;12.02;;;4.28;;
71303;SDS011;59091;47.446;19.148;2023-04-29T13:22:51;8.65;;;4.82;;
71303;SDS011;59091;47.446;19.148;2023-04-29T13:25:17;5.60;;;4.10;;
71303;SDS011;59091;47.446;19.148;2023-04-29T13:27:42;8.45;;;4.35;;
71303;SDS011;59091;47.446;19.148;2023-04-29T13:30:08;9.20;;;4.95;;
71303;SDS011;59091;47.446;19.148;2023-04-29T13:32:34;7.03;;;3.78;;
71303;SDS011;59091;47.446;19.148;2023-04-29T13:35:00;8.93;;;4.70;;
71303;SDS011;59091;47.446;19.148;2023-04-29T13:37:26;9.98;;;4.13;;
71303;SDS011;59091;47.446;19.148;2023-04-29T13:39:51;6.72;;;4.00;;
71303;SDS011;59091;47.446;19.148;2023-04-29T13:42:17;8.48;;;4.60;;
71303;SDS011;59091;47.446;19.148;2023-04-29T13:44:42;8.55;;;4.00;;
71303;SDS011;59091;47.446;19.148;2023-04-29T13:47:11;6.03;;;4.10;;
71303;SDS011;59091;47.446;19.148;2023-04-29T13:49:38;7.00;;;3.90;;
71303;SDS011;59091;47.446;19.148;2023-04-29T13:52:04;4.55;;;3.97;;
71303;SDS011;59091;47.446;19.148;2023-04-29T13:54:30;7.00;;;4.20;;
71303;SDS011;59091;47.446;19.148;2023-04-29T13:56:55;9.60;;;4.28;;
71303;SDS011;59091;47.446;19.148;2023-04-29T13:59:21;11.07;;;4.22;;
71303;SDS011;59091;47.446;19.148;2023-04-29T14:01:46;5.82;;;3.95;;
71303;SDS011;59091;47.446;19.148;2023-04-29T14:04:12;6.07;;;4.07;;
71303;SDS011;59091;47.446;19.148;2023-04-29T14:06:38;12.32;;;5.00;;
71303;SDS011;59091;47.446;19.148;2023-04-29T14:09:03;9.57;;;4.28;;
71303;SDS011;59091;47.446;19.148;2023-04-29T14:11:29;7.68;;;4.05;;
71303;SDS011;59091;47.446;19.148;2023-04-29T14:13:54;8.27;;;4.20;;
71303;SDS011;59091;47.446;19.148;2023-04-29T14:16:20;6.90;;;3.90;;
71303;SDS011;59091;47.446;19.148;2023-04-29T14:18:45;7.43;;;4.05;;
71303;SDS011;59091;47.446;19.148;2023-04-29T14:21:11;5.90;;;3.88;;
71303;SDS011;59091;47.446;19.148;2023-04-29T14:23:36;4.78;;;3.92;;
71303;SDS011;59091;47.446;19.148;2023-04-29T14:26:02;6.47;;;3.83;;
71303;SDS011;59091;47.446;19.148;2023-04-29T14:28:27;4.38;;;3.70;;
71303;SDS011;59091;47.446;19.148;2023-04-29T14:30:53;4.75;;;3.22;;
71303;SDS011;59091;47.446;19.148;2023-04-29T14:33:19;4.38;;;3.85;;
71303;SDS011;59091;47.446;19.148;2023-04-29T14:35:45;12.18;;;4.30;;
71303;SDS011;59091;47.446;19.148;2023-04-29T14:38:10;8.68;;;4.32;;
71303;SDS011;59091;47.446;19.148;2023-04-29T14:40:36;6.28;;;3.83;;
71303;SDS011;59091;47.446;19.148;2023-04-29T14:43:03;10.93;;;3.97;;
71303;SDS011;59091;47.446;19.148;2023-04-29T14:45:28;4.45;;;3.63;;
71303;SDS011;59091;47.446;19.148;2023-04-29T14:47:54;8.95;;;3.88;;